Terminal Aerodrome Forecast
Issued by NWS Northern Indiana

Home | Current Version | Previous Version | Text Only | Print | Product List | Glossary On
Versions: 1 2 3 4 5 6 7 8 9 10 11 12 13 14
000
FTUS43 KIWX 150500
TAFFWA
TAF
KFWA 150520Z 1506/1606 34012KT 4SM -SN OVC015
      TEMPO 1506/1507 2SM -SN
     FM150900 32012KT P6SM VCSH OVC015
     FM151200 33013G21KT P6SM BKN035
     FM152300 30005KT P6SM FEW060=

USA.gov is the U.S. government's official web portal to all federal, state and local government web resources and services.